Time,TemperatureF,DewpointF,PressureIn,WindDirection,WindDirectionDegrees,WindSpeedMPH,WindSpeedGustMPH,Humidity,HourlyPrecipIn,Conditions,Clouds,dailyrainin,SolarRadiationWatts/m^2,SoftwareType,DateUTC
2013-02-11 00:11:00,23.0,8.0,-100.00,NNW,344,4.0,9.0,52,-99.99,,,0.00,1.000000,,2013-02-11 08:11:00,
2013-02-11 00:21:00,23.0,8.0,-100.00,NNW,344,4.0,9.0,52,-99.99,,,0.00,1.000000,,2013-02-11 08:21:00,
2013-02-11 00:31:00,23.0,8.0,-100.00,NNW,344,4.0,9.0,52,-99.99,,,0.00,1.000000,,2013-02-11 08:31:00,
2013-02-11 00:42:00,23.0,8.0,-100.00,NNW,344,4.0,9.0,52,-99.99,,,0.00,1.000000,,2013-02-11 08:42:00,
2013-02-11 00:51:00,22.0,6.0,-100.00,North,351,4.0,16.0,49,0.00,,,0.00,1.000000,,2013-02-11 08:51:00,
2013-02-11 01:12:00,22.0,6.0,-100.00,North,351,4.0,16.0,49,0.00,,,0.00,1.000000,,2013-02-11 09:12:00,
2013-02-11 01:21:00,22.0,6.0,-100.00,North,351,4.0,16.0,49,0.00,,,0.00,1.000000,,2013-02-11 09:21:00,
2013-02-11 01:31:00,22.0,6.0,-100.00,North,351,4.0,16.0,49,0.00,,,0.00,1.000000,,2013-02-11 09:31:00,
2013-02-11 01:41:00,22.0,6.0,-100.00,North,351,4.0,16.0,49,0.00,,,0.00,1.000000,,2013-02-11 09:41:00,
2013-02-11 01:51:00,24.0,6.0,-100.00,North,353,6.0,13.0,45,0.00,,,0.00,1.000000,,2013-02-11 09:51:00,
2013-02-11 02:21:00,24.0,6.0,-100.00,North,353,6.0,13.0,45,0.00,,,0.00,1.000000,,2013-02-11 10:21:00,
2013-02-11 02:31:00,24.0,6.0,-100.00,North,353,6.0,13.0,45,0.00,,,0.00,1.000000,,2013-02-11 10:31:00,
2013-02-11 02:41:00,24.0,6.0,-100.00,North,353,6.0,13.0,45,0.00,,,0.00,1.000000,,2013-02-11 10:41:00,
2013-02-11 02:51:00,24.0,6.0,-100.00,North,352,6.0,21.0,46,0.00,,,0.00,1.000000,,2013-02-11 10:51:00,
2013-02-11 03:22:00,24.0,6.0,-100.00,North,352,6.0,21.0,46,0.00,,,0.00,1.000000,,2013-02-11 11:22:00,
2013-02-11 03:32:00,24.0,6.0,-100.00,North,352,6.0,21.0,46,0.00,,,0.00,1.000000,,2013-02-11 11:32:00,
2013-02-11 03:42:00,24.0,6.0,-100.00,North,352,6.0,21.0,46,0.00,,,0.00,1.000000,,2013-02-11 11:42:00,
2013-02-11 03:51:00,23.0,7.0,-100.00,NNW,339,6.0,15.0,49,0.00,,,0.00,1.000000,,2013-02-11 11:51:00,
2013-02-11 04:12:00,23.0,7.0,-100.00,NNW,339,6.0,15.0,49,0.00,,,0.00,1.000000,,2013-02-11 12:12:00,
2013-02-11 04:22:00,23.0,7.0,-100.00,NNW,339,6.0,15.0,49,0.00,,,0.00,1.000000,,2013-02-11 12:22:00,
2013-02-11 04:31:00,23.0,7.0,-100.00,NNW,339,6.0,15.0,49,0.00,,,0.00,1.000000,,2013-02-11 12:31:00,
2013-02-11 04:42:00,23.0,7.0,-100.00,NNW,339,6.0,15.0,49,0.00,,,0.00,1.000000,,2013-02-11 12:42:00,
2013-02-11 04:51:00,22.0,8.0,-100.00,North,1,5.0,14.0,53,0.00,,,-99.99,1.000000,,2013-02-11 12:51:00,
2013-02-11 05:21:00,22.0,8.0,-100.00,North,1,5.0,14.0,53,0.00,,,-99.99,1.000000,,2013-02-11 13:21:00,
2013-02-11 05:32:00,22.0,8.0,-100.00,North,1,5.0,14.0,53,0.00,,,-99.99,1.000000,,2013-02-11 13:32:00,
2013-02-11 05:41:00,22.0,8.0,-100.00,North,1,5.0,14.0,53,0.00,,,-99.99,1.000000,,2013-02-11 13:41:00,
2013-02-11 06:11:00,14.0,5.0,-100.00,SSE,154,1.0,5.0,68,0.00,,,-99.99,1.000000,,2013-02-11 14:11:00,
2013-02-11 06:21:00,14.0,5.0,-100.00,SSE,154,1.0,5.0,68,0.00,,,-99.99,1.000000,,2013-02-11 14:21:00,
2013-02-11 07:11:00,12.0,5.0,-100.00,SSE,161,2.0,5.0,74,-99.99,,,0.00,1.000000,,2013-02-11 15:11:00,
2013-02-11 08:11:00,10.0,4.0,-100.00,SW,221,2.0,3.0,75,-99.99,,,0.00,12.000000,,2013-02-11 16:11:00,
2013-02-11 08:51:00,29.0,9.0,-100.00,ESE,122,1.0,3.0,43,-99.99,,,-99.99,234.000000,,2013-02-11 16:51:00,
2013-02-11 09:11:00,29.0,9.0,-100.00,ESE,122,1.0,3.0,43,-99.99,,,-99.99,234.000000,,2013-02-11 17:11:00,
2013-02-11 09:21:00,29.0,9.0,-100.00,ESE,122,1.0,3.0,43,-99.99,,,-99.99,234.000000,,2013-02-11 17:21:00,
2013-02-11 09:32:00,29.0,9.0,-100.00,ESE,122,1.0,3.0,43,-99.99,,,-99.99,234.000000,,2013-02-11 17:32:00,
2013-02-11 09:41:00,29.0,9.0,-100.00,ESE,122,1.0,3.0,43,-99.99,,,-99.99,234.000000,,2013-02-11 17:41:00,
2013-02-11 09:51:00,36.0,8.0,-100.00,SE,128,3.0,5.0,30,0.00,,,0.00,430.000000,,2013-02-11 17:51:00,
2013-02-11 10:21:00,36.0,8.0,-100.00,SE,128,3.0,5.0,30,0.00,,,0.00,430.000000,,2013-02-11 18:21:00,
2013-02-11 10:32:00,36.0,8.0,-100.00,SE,128,3.0,5.0,30,0.00,,,0.00,430.000000,,2013-02-11 18:32:00,
2013-02-11 10:42:00,36.0,8.0,-100.00,SE,128,3.0,5.0,30,0.00,,,0.00,430.000000,,2013-02-11 18:42:00,
2013-02-11 10:51:00,38.0,8.0,-100.00,North,352,4.0,10.0,28,0.00,,,-99.99,561.000000,,2013-02-11 18:51:00,
2013-02-11 11:11:00,38.0,8.0,-100.00,North,352,4.0,10.0,28,0.00,,,-99.99,561.000000,,2013-02-11 19:11:00,
2013-02-11 11:21:00,38.0,8.0,-100.00,North,352,4.0,10.0,28,0.00,,,-99.99,561.000000,,2013-02-11 19:21:00,
2013-02-11 11:31:00,38.0,8.0,-100.00,North,352,4.0,10.0,28,0.00,,,-99.99,561.000000,,2013-02-11 19:31:00,
2013-02-11 11:41:00,38.0,8.0,-100.00,North,352,4.0,10.0,28,0.00,,,-99.99,561.000000,,2013-02-11 19:41:00,
2013-02-11 11:51:00,40.0,6.0,-100.00,North,351,5.0,14.0,24,0.00,,,0.00,647.000000,,2013-02-11 19:51:00,
2013-02-11 12:21:00,40.0,6.0,-100.00,North,351,5.0,14.0,24,0.00,,,0.00,647.000000,,2013-02-11 20:21:00,
2013-02-11 12:31:00,40.0,6.0,-100.00,North,351,5.0,14.0,24,0.00,,,0.00,647.000000,,2013-02-11 20:31:00,
2013-02-11 12:41:00,40.0,6.0,-100.00,North,351,5.0,14.0,24,0.00,,,0.00,647.000000,,2013-02-11 20:41:00,
2013-02-11 12:51:00,41.0,7.0,-100.00,NNW,346,5.0,12.0,24,0.00,,,0.00,668.000000,,2013-02-11 20:51:00,
2013-02-11 13:11:00,41.0,7.0,-100.00,NNW,346,5.0,12.0,24,0.00,,,0.00,668.000000,,2013-02-11 21:11:00,
2013-02-11 13:21:00,41.0,7.0,-100.00,NNW,346,5.0,12.0,24,0.00,,,0.00,668.000000,,2013-02-11 21:21:00,
2013-02-11 13:31:00,41.0,7.0,-100.00,NNW,346,5.0,12.0,24,0.00,,,0.00,668.000000,,2013-02-11 21:31:00,
2013-02-11 13:41:00,41.0,7.0,-100.00,NNW,346,5.0,12.0,24,0.00,,,0.00,668.000000,,2013-02-11 21:41:00,
2013-02-11 13:51:00,43.0,8.0,-100.00,North,351,4.0,10.0,23,0.00,,,0.00,621.000000,,2013-02-11 21:51:00,
2013-02-11 14:11:00,43.0,8.0,-100.00,North,351,4.0,10.0,23,0.00,,,0.00,621.000000,,2013-02-11 22:11:00,
2013-02-11 14:21:00,43.0,8.0,-100.00,North,351,4.0,10.0,23,0.00,,,0.00,621.000000,,2013-02-11 22:21:00,
2013-02-11 14:41:00,43.0,8.0,-100.00,North,351,4.0,10.0,23,0.00,,,0.00,621.000000,,2013-02-11 22:41:00,
2013-02-11 14:51:00,43.0,9.0,-100.00,NNW,340,3.0,9.0,24,0.00,,,0.00,513.000000,,2013-02-11 22:51:00,
2013-02-11 15:21:00,43.0,9.0,-100.00,NNW,340,3.0,9.0,24,0.00,,,0.00,513.000000,,2013-02-11 23:21:00,
2013-02-11 15:31:00,43.0,9.0,-100.00,NNW,340,3.0,9.0,24,0.00,,,0.00,513.000000,,2013-02-11 23:31:00,
2013-02-11 15:41:00,43.0,9.0,-100.00,NNW,340,3.0,9.0,24,0.00,,,0.00,513.000000,,2013-02-11 23:41:00,
2013-02-11 15:51:00,42.0,10.0,-100.00,NNW,327,3.0,8.0,26,0.00,,,0.00,325.000000,,2013-02-11 23:51:00,
2013-02-11 16:11:00,42.0,10.0,-100.00,NNW,327,3.0,8.0,26,0.00,,,0.00,325.000000,,2013-02-12 00:11:00,
2013-02-11 16:21:00,42.0,10.0,-100.00,NNW,327,3.0,8.0,26,0.00,,,0.00,325.000000,,2013-02-12 00:21:00,
2013-02-11 16:32:00,42.0,10.0,-100.00,NNW,327,3.0,8.0,26,0.00,,,0.00,325.000000,,2013-02-12 00:32:00,
2013-02-11 16:42:00,42.0,10.0,-100.00,NNW,327,3.0,8.0,26,0.00,,,0.00,325.000000,,2013-02-12 00:42:00,
2013-02-11 16:51:00,36.0,9.0,-100.00,NNW,348,1.0,10.0,32,0.00,,,0.00,82.000000,,2013-02-12 00:51:00,
2013-02-11 17:21:00,36.0,9.0,-100.00,NNW,348,1.0,10.0,32,0.00,,,0.00,82.000000,,2013-02-12 01:21:00,
2013-02-11 17:31:00,36.0,9.0,-100.00,NNW,348,1.0,10.0,32,0.00,,,0.00,82.000000,,2013-02-12 01:31:00,
2013-02-11 17:41:00,36.0,9.0,-100.00,NNW,348,1.0,10.0,32,0.00,,,0.00,82.000000,,2013-02-12 01:41:00,
2013-02-11 18:51:00,22.0,11.0,-100.00,SSW,196,0.0,2.0,63,0.00,,,0.00,1.000000,,2013-02-12 02:51:00,
2013-02-11 19:41:00,22.0,11.0,-100.00,SSW,196,0.0,2.0,63,0.00,,,0.00,1.000000,,2013-02-12 03:41:00,
2013-02-11 21:11:00,17.0,11.0,-100.00,South,173,1.0,2.0,77,-99.99,,,0.00,1.000000,,2013-02-12 05:11:00,
2013-02-11 22:12:00,16.0,10.0,-100.00,SSW,206,1.0,3.0,77,-99.99,,,-99.99,1.000000,,2013-02-12 06:12:00,
2013-02-11 23:11:00,14.0,9.0,-100.00,SSE,166,0.0,2.0,81,-99.99,,,-99.99,1.000000,,2013-02-12 07:11:00,